Time;durP1;ratioP1;P1;durP2;ratioP2;P2;SDS_P1;SDS_P2;PMS_P1;PMS_P2;Temp;Humidity;BMP_temperature;BMP_pressure;BME280_temperature;BME280_humidity;BME280_pressure;Samples;Min_cycle;Max_cycle;Signal;HPM_P1;HPM_P2
2021/09/21 00:01:30;;;;;;;8.95;7.55;;;22.80;54.60;;;;;;5051810;28;20050;-49
2021/09/21 00:03:58;;;;;;;10.70;7.72;;;22.80;54.50;;;;;;5062010;28;20045;-52
2021/09/21 00:06:26;;;;;;;11.63;7.22;;;22.80;54.50;;;;;;5048599;28;20041;-50
2021/09/21 00:08:53;;;;;;;12.18;8.60;;;22.80;54.40;;;;;;5054248;28;20045;-49
2021/09/21 00:11:20;;;;;;;7.68;6.97;;;22.80;54.10;;;;;;5051178;28;20037;-49
2021/09/21 00:13:47;;;;;;;6.80;6.20;;;22.70;54.00;;;;;;5052342;28;20044;-53
2021/09/21 00:16:15;;;;;;;7.53;6.07;;;22.70;54.00;;;;;;5058082;28;20044;-49
2021/09/21 00:18:42;;;;;;;7.50;6.15;;;22.70;54.10;;;;;;5064553;28;20076;-49
2021/09/21 00:21:11;;;;;;;6.47;5.60;;;22.70;54.10;;;;;;5066274;28;20130;-50
2021/09/21 00:23:38;;;;;;;6.68;5.82;;;22.60;54.00;;;;;;5056399;28;20053;-50
2021/09/21 00:26:05;;;;;;;10.68;7.22;;;22.60;54.00;;;;;;5054908;28;20051;-52
2021/09/21 00:28:32;;;;;;;7.03;6.10;;;22.60;53.80;;;;;;5058859;28;20108;-53
2021/09/21 00:31:07;;;;;;;7.50;5.35;;;22.60;53.90;;;;;;5048034;28;20051;-53
2021/09/21 00:33:46;;;;;;;12.75;6.32;;;22.60;53.90;;;;;;5065012;28;20048;-52
2021/09/21 00:36:15;;;;;;;7.70;5.13;;;22.60;53.90;;;;;;5061548;28;20535;-51
2021/09/21 00:38:42;;;;;;;7.75;4.72;;;22.50;53.90;;;;;;5055725;28;20680;-49
2021/09/21 00:41:09;;;;;;;8.00;5.13;;;22.50;53.90;;;;;;5052010;28;20045;-48
2021/09/21 00:43:36;;;;;;;4.85;4.40;;;22.50;53.90;;;;;;5050080;28;20043;-49
2021/09/21 00:46:04;;;;;;;6.65;6.05;;;22.50;54.00;;;;;;5060057;28;20041;-48
2021/09/21 00:48:31;;;;;;;9.88;5.10;;;22.50;54.00;;;;;;5050489;28;20091;-48
2021/09/21 00:50:58;;;;;;;9.00;5.20;;;22.50;53.90;;;;;;5064021;28;20170;-50
2021/09/21 00:53:28;;;;;;;5.25;4.80;;;22.50;53.90;;;;;;5052839;28;20136;-49
2021/09/21 00:55:56;;;;;;;9.00;6.07;;;22.40;53.80;;;;;;5052574;28;20114;-51
2021/09/21 00:58:23;;;;;;;6.18;5.03;;;22.40;53.70;;;;;;5059229;28;20035;-49
2021/09/21 01:00:50;;;;;;;7.07;4.63;;;22.40;54.40;;;;;;5047788;28;20061;-49
2021/09/21 01:03:18;;;;;;;7.82;4.95;;;22.40;53.70;;;;;;5051740;28;20501;-49
2021/09/21 01:05:45;;;;;;;8.02;6.22;;;22.40;53.60;;;;;;5060656;28;20072;-52
2021/09/21 01:08:12;;;;;;;6.60;5.78;;;22.30;53.60;;;;;;5059063;28;20121;-51
2021/09/21 01:10:41;;;;;;;6.13;5.30;;;22.30;53.50;;;;;;5056476;28;20501;-48
2021/09/21 01:13:08;;;;;;;6.93;5.38;;;22.30;53.40;;;;;;5060774;28;20394;-48
2021/09/21 01:15:35;;;;;;;5.75;4.72;;;22.30;53.40;;;;;;5048200;28;20048;-49
2021/09/21 01:18:02;;;;;;;5.80;4.78;;;22.30;53.20;;;;;;5057406;28;20125;-47
2021/09/21 01:20:29;;;;;;;6.53;5.90;;;22.30;53.30;;;;;;5057949;28;20471;-49
2021/09/21 01:22:58;;;;;;;8.32;5.80;;;22.20;53.20;;;;;;5050160;28;20056;-52
2021/09/21 01:25:26;;;;;;;5.93;4.38;;;22.30;53.10;;;;;;5048451;28;20068;-50
2021/09/21 01:27:53;;;;;;;8.93;6.10;;;22.20;53.00;;;;;;5061106;28;20131;-49
2021/09/21 01:30:20;;;;;;;6.28;5.15;;;22.20;52.90;;;;;;5057792;28;20037;-48
2021/09/21 01:32:47;;;;;;;10.15;6.55;;;22.20;52.90;;;;;;5061851;28;20385;-47
2021/09/21 01:35:15;;;;;;;9.30;5.97;;;22.20;52.80;;;;;;5055674;28;20045;-51
2021/09/21 01:37:46;;;;;;;6.80;5.20;;;22.10;52.70;;;;;;5058743;28;20711;-50
2021/09/21 01:40:15;;;;;;;6.43;5.18;;;22.10;52.60;;;;;;5055370;28;20120;-50
2021/09/21 01:42:44;;;;;;;6.80;5.78;;;22.10;52.60;;;;;;5056099;28;20105;-49
2021/09/21 01:45:13;;;;;;;8.52;5.55;;;22.10;52.60;;;;;;5048145;28;20535;-49
2021/09/21 01:47:40;;;;;;;7.90;6.50;;;22.10;52.50;;;;;;5059789;28;20142;-52
2021/09/21 01:50:21;;;;;;;7.30;6.50;;;22.10;52.40;;;;;;5053854;28;20079;-49
2021/09/21 01:52:53;;;;;;;7.00;5.75;;;22.00;52.40;;;;;;5050742;28;20123;-51
2021/09/21 01:58:17;;;;;;;8.70;6.00;;;22.00;52.40;;;;;;5046000;28;20041;-50
2021/09/21 02:00:58;;;;;;;8.88;4.70;;;22.00;52.40;;;;;;4971642;28;20442;-48
2021/09/21 02:03:25;;;;;;;6.47;5.30;;;21.90;52.40;;;;;;4969911;28;20289;-49
2021/09/21 02:05:52;;;;;;;9.25;6.45;;;22.00;52.50;;;;;;4988633;28;20077;-51
2021/09/21 02:08:19;;;;;;;7.85;6.85;;;21.90;52.30;;;;;;4993234;28;20052;-50
2021/09/21 02:10:47;;;;;;;9.00;7.75;;;21.90;52.20;;;;;;4991586;28;20129;-49
2021/09/21 02:13:15;;;;;;;7.35;6.47;;;21.90;52.20;;;;;;4984726;28;20093;-48
2021/09/21 02:15:42;;;;;;;7.95;6.47;;;21.90;52.20;;;;;;4998035;28;20500;-50
2021/09/21 02:18:09;;;;;;;7.35;6.60;;;21.90;52.30;;;;;;4989382;28;20064;-48
2021/09/21 02:20:36;;;;;;;8.18;5.95;;;21.90;52.20;;;;;;4989153;28;20608;-50
2021/09/21 02:23:03;;;;;;;7.72;6.88;;;21.90;52.20;;;;;;4954275;28;20043;-49
2021/09/21 02:25:30;;;;;;;8.88;6.47;;;21.80;52.10;;;;;;4976907;28;20523;-53
2021/09/21 02:27:59;;;;;;;8.13;6.63;;;21.90;52.10;;;;;;4998628;28;20048;-51
2021/09/21 02:30:26;;;;;;;7.00;6.22;;;21.80;52.00;;;;;;4986665;28;20720;-50
2021/09/21 02:32:53;;;;;;;7.35;6.65;;;21.80;52.10;;;;;;5000455;28;20057;-49
2021/09/21 02:35:20;;;;;;;9.77;6.95;;;21.80;52.10;;;;;;4988547;28;20538;-51
2021/09/21 02:37:48;;;;;;;9.77;6.38;;;21.80;52.10;;;;;;5011782;28;20053;-51
2021/09/21 02:40:16;;;;;;;8.35;6.43;;;21.80;52.20;;;;;;5047682;28;20041;-52
2021/09/21 02:42:43;;;;;;;9.52;6.45;;;21.80;52.20;;;;;;5044338;28;20041;-51
2021/09/21 02:45:13;;;;;;;7.95;6.97;;;21.80;52.20;;;;;;5052069;28;20515;-54
2021/09/21 02:47:40;;;;;;;9.60;6.25;;;21.80;52.20;;;;;;5050360;28;20675;-50
2021/09/21 02:50:09;;;;;;;8.45;6.88;;;21.70;52.10;;;;;;5057069;28;20036;-50
2021/09/21 02:52:36;;;;;;;8.25;6.35;;;21.70;52.20;;;;;;5058828;28;20492;-54
2021/09/21 02:55:04;;;;;;;8.50;6.60;;;21.70;52.20;;;;;;5037496;28;20114;-53
2021/09/21 02:57:33;;;;;;;7.57;5.78;;;21.70;52.30;;;;;;5046914;28;20088;-53
2021/09/21 03:00:00;;;;;;;9.82;6.68;;;21.70;52.30;;;;;;5051732;28;20049;-50
2021/09/21 03:02:31;;;;;;;8.88;8.00;;;21.70;52.20;;;;;;5057473;28;20040;-50
2021/09/21 03:05:01;;;;;;;7.63;6.80;;;21.70;52.20;;;;;;5057357;28;20048;-52
2021/09/21 03:07:33;;;;;;;12.23;7.72;;;21.70;52.20;;;;;;5055437;28;20139;-50
2021/09/21 03:13:02;;;;;;;11.02;6.32;;;21.60;52.30;;;;;;5026249;28;20044;-50
2021/09/21 03:18:16;;;;;;;9.60;7.47;;;21.60;52.50;;;;;;5059041;28;20084;-51
2021/09/21 03:20:43;;;;;;;17.95;8.73;;;21.60;52.50;;;;;;5051052;28;20043;-51
2021/09/21 03:23:10;;;;;;;7.53;6.65;;;21.60;52.60;;;;;;5048993;28;20037;-53
2021/09/21 03:25:37;;;;;;;8.90;6.10;;;21.60;52.70;;;;;;5049505;28;20037;-53
2021/09/21 03:28:06;;;;;;;10.88;8.57;;;21.50;52.70;;;;;;5061811;28;20056;-52
2021/09/21 03:30:33;;;;;;;8.23;6.22;;;21.50;52.70;;;;;;5046314;28;20040;-53
2021/09/21 03:33:00;;;;;;;7.97;6.57;;;21.50;52.70;;;;;;5047513;28;20052;-48
2021/09/21 03:35:29;;;;;;;11.93;6.60;;;21.50;52.80;;;;;;5040947;28;20068;-49
2021/09/21 03:37:56;;;;;;;8.68;7.78;;;21.50;52.80;;;;;;5036757;28;20512;-52
2021/09/21 03:40:23;;;;;;;8.25;7.03;;;21.50;52.90;;;;;;5049620;28;20036;-50
2021/09/21 03:42:50;;;;;;;11.20;6.40;;;21.50;53.00;;;;;;5046342;28;20589;-49
2021/09/21 03:45:17;;;;;;;10.10;6.82;;;21.50;53.60;;;;;;5048910;28;20112;-48
2021/09/21 03:47:44;;;;;;;10.85;7.95;;;21.50;53.10;;;;;;5050139;28;20041;-50
2021/09/21 03:50:11;;;;;;;9.48;7.45;;;21.50;53.00;;;;;;5054974;28;20048;-49
2021/09/21 03:52:40;;;;;;;11.00;8.45;;;21.50;53.00;;;;;;5061376;28;20086;-48
2021/09/21 03:55:07;;;;;;;10.13;7.68;;;21.50;52.90;;;;;;5049197;28;20037;-48
2021/09/21 03:57:34;;;;;;;8.18;7.32;;;21.50;52.90;;;;;;5064941;28;20049;-50
2021/09/21 04:00:01;;;;;;;9.65;8.65;;;21.50;52.90;;;;;;5065546;28;20046;-50
2021/09/21 04:02:38;;;;;;;7.47;6.78;;;21.40;52.80;;;;;;5057672;28;20047;-50
2021/09/21 04:05:06;;;;;;;12.23;7.95;;;21.40;52.80;;;;;;5054099;28;20084;-51
2021/09/21 04:07:33;;;;;;;10.40;8.38;;;21.40;52.90;;;;;;5060208;28;20033;-48
2021/09/21 04:10:02;;;;;;;13.10;7.20;;;21.40;52.70;;;;;;5062452;28;20128;-51
2021/09/21 04:12:30;;;;;;;9.82;8.18;;;21.40;52.80;;;;;;5065644;28;20055;-54
2021/09/21 04:14:57;;;;;;;10.13;8.65;;;21.40;52.80;;;;;;5050484;28;20128;-49
2021/09/21 04:17:24;;;;;;;10.80;8.48;;;21.40;52.80;;;;;;5056897;28;20036;-51
2021/09/21 04:19:51;;;;;;;9.18;8.13;;;21.40;53.40;;;;;;5055285;28;20088;-50
2021/09/21 04:22:18;;;;;;;10.48;8.73;;;21.40;52.80;;;;;;5049020;28;20035;-50
2021/09/21 04:24:45;;;;;;;17.52;9.88;;;21.40;52.80;;;;;;5048541;28;20612;-50
2021/09/21 04:27:13;;;;;;;15.23;10.73;;;21.40;52.70;;;;;;5048984;28;20120;-49
2021/09/21 04:29:41;;;;;;;9.38;8.43;;;21.40;52.80;;;;;;5051201;28;20071;-48
2021/09/21 04:32:08;;;;;;;13.15;8.60;;;21.40;52.70;;;;;;5055720;28;20044;-49
2021/09/21 04:34:36;;;;;;;10.65;8.88;;;21.40;52.70;;;;;;5059224;28;20695;-49
2021/09/21 04:37:04;;;;;;;10.13;8.05;;;21.40;52.60;;;;;;5050785;28;20048;-52
2021/09/21 04:39:31;;;;;;;11.25;8.07;;;21.30;52.60;;;;;;5057096;28;20073;-50
2021/09/21 04:41:58;;;;;;;12.15;9.93;;;21.30;52.70;;;;;;5064000;28;20060;-50
2021/09/21 04:44:26;;;;;;;12.90;8.27;;;21.30;52.50;;;;;;5059765;28;20048;-53
2021/09/21 04:46:53;;;;;;;9.90;8.00;;;21.30;52.60;;;;;;5056235;28;20043;-51
2021/09/21 04:49:20;;;;;;;11.27;8.80;;;21.30;52.60;;;;;;5050802;28;20051;-50
2021/09/21 04:51:47;;;;;;;11.13;9.13;;;21.30;52.70;;;;;;5063806;28;20505;-50
2021/09/21 04:54:14;;;;;;;9.52;8.20;;;21.30;52.70;;;;;;5051378;28;20041;-51
2021/09/21 04:56:41;;;;;;;14.68;8.68;;;21.30;52.60;;;;;;5061014;28;20056;-53
2021/09/21 04:59:08;;;;;;;9.70;8.57;;;21.30;52.60;;;;;;5059007;28;20056;-49
2021/09/21 05:01:37;;;;;;;14.43;8.48;;;21.20;52.60;;;;;;5058948;28;20512;-49
2021/09/21 05:04:05;;;;;;;12.73;8.90;;;21.30;52.70;;;;;;5051833;28;20045;-51
2021/09/21 05:06:32;;;;;;;10.75;8.50;;;21.20;52.70;;;;;;5048787;28;20093;-49
2021/09/21 05:08:59;;;;;;;9.52;8.63;;;21.20;52.80;;;;;;5049335;28;20160;-50
2021/09/21 05:11:26;;;;;;;12.65;9.02;;;21.20;52.80;;;;;;5057326;28;20473;-51
2021/09/21 05:13:53;;;;;;;11.55;9.48;;;21.20;52.70;;;;;;5058698;28;20127;-49
2021/09/21 05:16:21;;;;;;;12.13;10.82;;;21.10;52.60;;;;;;5051361;28;20806;-50
2021/09/21 05:18:49;;;;;;;11.35;9.35;;;21.10;52.60;;;;;;5062543;28;20505;-51
2021/09/21 05:21:16;;;;;;;14.40;9.68;;;21.10;52.60;;;;;;5039043;28;20048;-49
2021/09/21 05:23:43;;;;;;;13.32;10.82;;;21.10;52.60;;;;;;5049876;28;20041;-52
2021/09/21 05:26:11;;;;;;;11.30;10.20;;;21.00;52.40;;;;;;5055302;28;20076;-52
2021/09/21 05:28:38;;;;;;;10.07;9.00;;;21.00;52.30;;;;;;5059592;28;20409;-47
2021/09/21 05:31:05;;;;;;;14.55;9.02;;;21.10;52.30;;;;;;5048513;28;20059;-53
2021/09/21 05:33:32;;;;;;;13.57;9.25;;;21.00;52.30;;;;;;5063038;28;20126;-52
2021/09/21 05:36:01;;;;;;;14.20;9.00;;;21.00;52.30;;;;;;5061222;28;20421;-52
2021/09/21 05:38:30;;;;;;;11.57;10.43;;;21.00;52.20;;;;;;5052502;28;20041;-50
2021/09/21 05:40:57;;;;;;;13.32;10.00;;;20.90;52.10;;;;;;5051188;28;20122;-49
2021/09/21 05:43:24;;;;;;;9.38;8.35;;;20.90;52.00;;;;;;5047324;28;20033;-50
2021/09/21 05:45:51;;;;;;;11.90;9.48;;;20.90;51.80;;;;;;5057051;28;20037;-49
2021/09/21 05:48:18;;;;;;;10.32;9.18;;;20.90;51.70;;;;;;5063069;28;20064;-49
2021/09/21 05:50:45;;;;;;;11.20;9.45;;;20.90;51.60;;;;;;5048955;28;20464;-48
2021/09/21 05:53:14;;;;;;;14.45;8.90;;;20.90;51.50;;;;;;5055361;28;20129;-52
2021/09/21 05:55:41;;;;;;;7.90;7.10;;;20.90;51.30;;;;;;5053765;28;20458;-51
2021/09/21 05:58:10;;;;;;;6.25;5.68;;;20.80;52.10;;;;;;5046588;28;20128;-51
2021/09/21 06:00:38;;;;;;;7.50;4.93;;;20.90;52.60;;;;;;5055878;28;20048;-53
2021/09/21 06:03:05;;;;;;;5.95;4.40;;;21.00;52.90;;;;;;5063293;28;20048;-54
2021/09/21 06:05:33;;;;;;;8.00;3.78;;;21.20;53.20;;;;;;5050096;28;20045;-52
2021/09/21 06:08:00;;;;;;;9.48;3.13;;;21.30;53.10;;;;;;5052748;28;20465;-54
2021/09/21 06:10:29;;;;;;;7.53;2.75;;;21.40;53.10;;;;;;5051090;28;20029;-54
2021/09/21 06:12:56;;;;;;;4.57;2.63;;;21.50;53.10;;;;;;5047441;28;20099;-55
2021/09/21 06:15:24;;;;;;;3.30;3.00;;;21.60;53.00;;;;;;5048756;28;20405;-53
2021/09/21 06:17:51;;;;;;;3.08;2.78;;;21.70;53.00;;;;;;5050045;28;20045;-53
2021/09/21 06:20:19;;;;;;;2.97;2.22;;;21.80;53.00;;;;;;5046268;28;20033;-51
2021/09/21 06:22:48;;;;;;;6.32;1.73;;;21.90;52.90;;;;;;5050833;28;20051;-54
2021/09/21 06:25:17;;;;;;;4.05;2.03;;;22.00;52.90;;;;;;5045525;28;20138;-54
2021/09/21 06:27:46;;;;;;;2.53;1.98;;;22.00;52.80;;;;;;5044097;28;20067;-54
2021/09/21 06:30:17;;;;;;;3.63;1.88;;;22.10;52.80;;;;;;5039404;28;20691;-54
2021/09/21 06:32:45;;;;;;;3.88;1.35;;;22.10;52.70;;;;;;5042222;28;20052;-54
2021/09/21 06:35:13;;;;;;;7.53;1.65;;;22.20;52.60;;;;;;5046945;28;20045;-54
2021/09/21 06:37:40;;;;;;;3.20;1.75;;;22.30;52.50;;;;;;5044072;28;20052;-54
2021/09/21 06:40:09;;;;;;;1.77;1.67;;;22.30;52.50;;;;;;5049273;28;20044;-51
2021/09/21 06:42:41;;;;;;;3.58;1.27;;;22.40;52.50;;;;;;5046522;28;20514;-53
2021/09/21 06:45:12;;;;;;;2.50;1.55;;;22.50;52.50;;;;;;5043875;28;20045;-52
2021/09/21 06:47:40;;;;;;;1.13;1.05;;;22.50;52.40;;;;;;5055678;28;20075;-54
2021/09/21 06:50:08;;;;;;;1.38;0.98;;;22.50;52.30;;;;;;5044960;28;20060;-54
2021/09/21 06:52:35;;;;;;;2.05;1.67;;;22.60;52.30;;;;;;5049190;28;20044;-55
2021/09/21 06:55:07;;;;;;;1.00;0.98;;;22.60;52.30;;;;;;5054139;28;20558;-56
2021/09/21 06:57:34;;;;;;;3.22;1.33;;;22.70;52.30;;;;;;5046527;28;20045;-55
2021/09/21 07:00:01;;;;;;;2.15;1.55;;;22.70;52.20;;;;;;5047138;28;20037;-54
2021/09/21 07:02:30;;;;;;;2.42;1.20;;;22.70;52.10;;;;;;5048262;28;20037;-52
2021/09/21 07:04:57;;;;;;;1.60;0.70;;;22.80;52.10;;;;;;5047791;28;20068;-54
2021/09/21 07:07:25;;;;;;;0.90;0.90;;;22.80;52.10;;;;;;5038638;28;20049;-54
2021/09/21 07:09:52;;;;;;;1.30;0.85;;;22.90;52.00;;;;;;5040305;28;20060;-54
2021/09/21 07:12:19;;;;;;;3.63;0.63;;;22.90;51.90;;;;;;5051208;28;20029;-54
2021/09/21 07:14:47;;;;;;;3.40;0.80;;;22.90;52.00;;;;;;5048521;28;20053;-55
2021/09/21 07:17:14;;;;;;;1.95;1.00;;;22.90;52.10;;;;;;5046599;28;20116;-57
2021/09/21 07:19:42;;;;;;;1.10;1.10;;;23.00;52.10;;;;;;5047747;28;20041;-56
2021/09/21 07:22:09;;;;;;;3.92;0.90;;;23.00;52.10;;;;;;5046999;28;20071;-54
2021/09/21 07:24:36;;;;;;;1.23;0.82;;;23.00;52.10;;;;;;5045914;28;20111;-53
2021/09/21 07:27:04;;;;;;;2.05;1.10;;;23.10;52.10;;;;;;5050885;28;20052;-53
2021/09/21 07:29:31;;;;;;;1.13;1.08;;;23.10;52.00;;;;;;5049615;28;20065;-54
2021/09/21 07:31:58;;;;;;;0.77;0.77;;;23.10;51.90;;;;;;5049871;28;20124;-54
2021/09/21 07:34:25;;;;;;;3.50;1.55;;;23.10;51.90;;;;;;5048965;28;20510;-55
2021/09/21 07:36:54;;;;;;;1.33;0.98;;;23.20;51.80;;;;;;5064328;28;20037;-53
2021/09/21 07:39:21;;;;;;;4.05;0.75;;;23.20;51.80;;;;;;5066123;28;20048;-52
2021/09/21 07:41:49;;;;;;;1.40;0.77;;;23.20;51.60;;;;;;5051252;28;20115;-53
2021/09/21 07:44:16;;;;;;;2.03;0.80;;;23.20;51.60;;;;;;5047399;28;20041;-51
2021/09/21 07:46:43;;;;;;;2.35;1.02;;;23.30;51.60;;;;;;5052345;28;20122;-55
2021/09/21 07:49:10;;;;;;;2.25;0.47;;;23.30;51.40;;;;;;5057177;28;20124;-53
2021/09/21 07:51:37;;;;;;;4.22;1.17;;;23.30;51.50;;;;;;5053364;28;20148;-54
2021/09/21 07:54:08;;;;;;;2.22;0.93;;;23.40;51.50;;;;;;5052822;28;20053;-54
2021/09/21 07:56:36;;;;;;;1.08;0.70;;;23.40;51.50;;;;;;5050237;28;20059;-54
2021/09/21 07:59:05;;;;;;;0.93;0.63;;;23.40;51.50;;;;;;5044639;28;20045;-54
2021/09/21 08:01:33;;;;;;;1.75;1.23;;;23.40;51.30;;;;;;5053757;28;20048;-55
2021/09/21 08:04:00;;;;;;;3.42;0.77;;;23.40;51.30;;;;;;5047422;28;20140;-55
2021/09/21 08:06:29;;;;;;;0.90;0.43;;;23.50;51.30;;;;;;5045900;28;20036;-55
2021/09/21 08:08:57;;;;;;;1.33;0.90;;;23.50;51.30;;;;;;5048630;28;20514;-52
2021/09/21 08:11:26;;;;;;;0.75;0.75;;;23.50;51.20;;;;;;5059197;28;20075;-54
2021/09/21 08:13:54;;;;;;;2.50;0.90;;;23.50;51.10;;;;;;5054581;28;20442;-50
2021/09/21 08:16:21;;;;;;;2.47;0.80;;;23.50;51.10;;;;;;5047100;28;20056;-54
2021/09/21 08:18:48;;;;;;;1.05;0.68;;;23.50;51.00;;;;;;5060310;28;20036;-54
2021/09/21 08:21:18;;;;;;;1.85;0.38;;;23.50;51.00;;;;;;5052122;28;20037;-51
2021/09/21 08:23:46;;;;;;;5.28;0.65;;;23.60;50.90;;;;;;5053070;28;20036;-55
2021/09/21 08:26:13;;;;;;;0.85;0.57;;;23.60;51.00;;;;;;5053652;28;20707;-55
2021/09/21 08:28:42;;;;;;;2.70;0.43;;;23.60;51.10;;;;;;5048486;28;20055;-56
2021/09/21 08:31:09;;;;;;;2.63;0.40;;;23.60;51.20;;;;;;5047117;28;20120;-51
2021/09/21 08:33:38;;;;;;;2.35;0.60;;;23.60;51.00;;;;;;5046831;28;20224;-52
2021/09/21 08:36:05;;;;;;;1.95;0.40;;;23.70;51.00;;;;;;5050484;28;20041;-53
2021/09/21 08:38:33;;;;;;;5.88;0.68;;;23.70;50.90;;;;;;5051672;28;20052;-53
2021/09/21 08:41:00;;;;;;;2.53;0.68;;;23.70;50.90;;;;;;5048602;28;20116;-53
2021/09/21 08:43:28;;;;;;;1.65;0.63;;;23.70;50.70;;;;;;5048377;28;20049;-53
2021/09/21 08:45:57;;;;;;;1.33;0.50;;;23.70;50.70;;;;;;5047087;28;20071;-54
2021/09/21 08:48:25;;;;;;;7.82;1.58;;;23.80;50.70;;;;;;5048015;28;20797;-51
2021/09/21 08:50:53;;;;;;;3.50;0.75;;;23.80;50.70;;;;;;5048216;28;20032;-55
2021/09/21 08:53:20;;;;;;;2.75;0.98;;;23.80;50.60;;;;;;5058200;28;20050;-56
2021/09/21 08:55:47;;;;;;;5.07;0.73;;;23.80;50.50;;;;;;5053569;28;20041;-53
2021/09/21 08:58:14;;;;;;;1.15;0.47;;;23.80;50.50;;;;;;5047649;28;20048;-50
2021/09/21 09:00:42;;;;;;;3.15;0.80;;;23.80;50.40;;;;;;5063554;28;20052;-55
2021/09/21 09:03:12;;;;;;;4.38;0.98;;;23.90;50.40;;;;;;5061183;28;20047;-48
2021/09/21 09:05:44;;;;;;;3.80;0.80;;;23.90;50.40;;;;;;5046441;28;20061;-50
2021/09/21 09:08:11;;;;;;;1.80;0.68;;;23.90;50.30;;;;;;5050505;28;20044;-51
2021/09/21 09:10:39;;;;;;;3.05;0.88;;;23.90;50.30;;;;;;5044302;28;20535;-53
2021/09/21 09:13:17;;;;;;;2.50;0.80;;;23.90;50.20;;;;;;5046510;28;20051;-54
2021/09/21 09:15:53;;;;;;;3.30;0.88;;;23.90;50.10;;;;;;5034329;28;20146;-55
2021/09/21 09:18:28;;;;;;;4.35;0.70;;;24.00;50.00;;;;;;5063225;28;20463;-52
2021/09/21 09:21:00;;;;;;;3.90;0.50;;;24.00;50.00;;;;;;5052994;28;20048;-54
2021/09/21 09:23:27;;;;;;;4.03;0.52;;;24.00;50.00;;;;;;5056694;28;20041;-54
2021/09/21 09:25:54;;;;;;;2.70;0.70;;;24.00;49.90;;;;;;5057041;28;20471;-54
2021/09/21 09:28:24;;;;;;;1.48;0.60;;;24.00;49.70;;;;;;5057429;28;20039;-53
2021/09/21 09:30:53;;;;;;;2.08;0.35;;;24.00;49.70;;;;;;5047610;28;20051;-50
2021/09/21 09:33:22;;;;;;;2.40;0.70;;;24.10;49.60;;;;;;5063422;28;20512;-55
2021/09/21 09:35:52;;;;;;;4.18;0.65;;;24.00;49.60;;;;;;5050513;28;20059;-51
2021/09/21 09:38:21;;;;;;;1.52;0.50;;;24.10;49.50;;;;;;5055454;28;20580;-51
2021/09/21 09:40:50;;;;;;;1.33;0.57;;;24.10;49.40;;;;;;5056900;28;20044;-52
2021/09/21 09:43:19;;;;;;;3.25;1.17;;;24.10;49.30;;;;;;5053850;28;20111;-50
2021/09/21 09:45:49;;;;;;;2.22;0.93;;;24.10;49.30;;;;;;5062090;28;20052;-52
2021/09/21 09:48:18;;;;;;;2.05;0.55;;;24.10;49.10;;;;;;5047441;28;20045;-51
2021/09/21 09:50:47;;;;;;;1.02;0.63;;;24.20;49.20;;;;;;5049319;28;20132;-54
2021/09/21 09:53:19;;;;;;;4.32;0.65;;;24.20;49.10;;;;;;5054283;28;20043;-50
2021/09/21 09:55:49;;;;;;;1.63;0.93;;;24.20;49.00;;;;;;5055654;28;20051;-52
2021/09/21 09:58:18;;;;;;;3.17;0.52;;;24.20;49.00;;;;;;5046519;28;20040;-53
2021/09/21 10:00:45;;;;;;;1.52;1.17;;;24.20;49.10;;;;;;5062439;28;20517;-51
2021/09/21 10:03:13;;;;;;;0.98;0.65;;;24.30;49.20;;;;;;5057205;28;20040;-49
2021/09/21 10:05:41;;;;;;;3.83;0.77;;;24.30;49.10;;;;;;5059591;28;20125;-50
2021/09/21 10:08:11;;;;;;;0.93;0.60;;;24.30;49.10;;;;;;5056485;28;20118;-50
2021/09/21 10:10:41;;;;;;;1.33;0.52;;;24.30;49.10;;;;;;5057555;28;20051;-49
2021/09/21 10:13:12;;;;;;;0.52;0.52;;;24.40;49.10;;;;;;5046758;28;20090;-53
2021/09/21 10:15:41;;;;;;;1.08;0.55;;;24.40;49.10;;;;;;5047246;28;20160;-51
2021/09/21 10:18:16;;;;;;;3.13;0.47;;;24.40;48.80;;;;;;5046502;28;20132;-51
2021/09/21 10:20:45;;;;;;;0.75;0.20;;;24.40;48.80;;;;;;5049524;28;20538;-53
2021/09/21 10:23:13;;;;;;;1.58;0.40;;;24.40;48.80;;;;;;5049391;28;20067;-55
2021/09/21 10:25:44;;;;;;;1.85;0.45;;;24.50;48.60;;;;;;5048757;28;20045;-52
2021/09/21 10:28:14;;;;;;;1.73;0.82;;;24.50;48.50;;;;;;5046157;28;20036;-54
2021/09/21 10:30:53;;;;;;;1.13;0.57;;;24.50;48.30;;;;;;5045685;28;20045;-51
2021/09/21 10:33:23;;;;;;;1.05;1.02;;;24.60;48.20;;;;;;5046754;28;20532;-55
2021/09/21 10:35:52;;;;;;;3.17;0.50;;;24.50;48.30;;;;;;5047509;28;20049;-56
2021/09/21 10:38:20;;;;;;;1.65;1.30;;;24.60;48.30;;;;;;5052528;28;20094;-53
2021/09/21 10:40:51;;;;;;;2.83;0.50;;;24.60;48.30;;;;;;5053855;28;20029;-53
2021/09/21 10:43:24;;;;;;;0.82;0.50;;;24.60;48.40;;;;;;5046711;28;20045;-53
2021/09/21 10:46:05;;;;;;;0.85;0.52;;;24.60;48.30;;;;;;5058552;28;20091;-52
2021/09/21 10:48:35;;;;;;;2.33;0.88;;;24.60;48.30;;;;;;5048154;28;20101;-54
2021/09/21 10:51:03;;;;;;;1.58;0.40;;;24.60;48.20;;;;;;5053267;28;20417;-51
2021/09/21 10:53:31;;;;;;;1.30;0.47;;;24.70;48.20;;;;;;5045519;28;20477;-55
2021/09/21 10:56:02;;;;;;;3.72;0.57;;;24.70;48.10;;;;;;5048438;28;20475;-51
2021/09/21 10:58:30;;;;;;;0.60;0.30;;;24.80;48.00;;;;;;5047444;28;20049;-53
2021/09/21 11:00:58;;;;;;;0.75;0.30;;;24.80;48.00;;;;;;5043324;28;20127;-54
2021/09/21 11:03:28;;;;;;;2.78;0.40;;;24.80;47.90;;;;;;5062520;28;20509;-54
2021/09/21 11:05:56;;;;;;;2.92;0.30;;;24.90;47.90;;;;;;5051554;28;20489;-54
2021/09/21 11:08:31;;;;;;;0.80;0.40;;;24.90;47.80;;;;;;5048913;28;20036;-54
2021/09/21 11:11:01;;;;;;;2.65;0.40;;;24.90;47.80;;;;;;5045887;28;20501;-53
2021/09/21 11:13:33;;;;;;;6.68;0.63;;;24.90;47.80;;;;;;5046977;28;20049;-54
2021/09/21 11:16:02;;;;;;;3.33;0.73;;;24.90;47.80;;;;;;5044681;28;20076;-55
2021/09/21 11:18:30;;;;;;;0.75;0.50;;;25.00;48.40;;;;;;5043050;28;20044;-53
2021/09/21 11:21:01;;;;;;;0.65;0.65;;;25.00;47.80;;;;;;5047713;28;20145;-54
2021/09/21 11:23:30;;;;;;;1.27;0.50;;;25.00;47.80;;;;;;5045278;28;20045;-50
2021/09/21 11:26:00;;;;;;;5.78;1.17;;;25.00;47.60;;;;;;5049075;28;20127;-51
2021/09/21 11:28:30;;;;;;;0.60;0.50;;;25.10;47.60;;;;;;5042775;28;20061;-51
2021/09/21 11:30:59;;;;;;;4.47;0.60;;;25.10;47.60;;;;;;5046872;28;20037;-50
2021/09/21 11:33:28;;;;;;;0.93;0.80;;;25.10;47.50;;;;;;5062038;28;20040;-51
2021/09/21 11:35:59;;;;;;;6.47;0.82;;;25.10;47.50;;;;;;5049397;28;20444;-52
2021/09/21 11:38:30;;;;;;;1.95;1.33;;;25.20;47.50;;;;;;5044266;28;20472;-53
2021/09/21 11:40:57;;;;;;;1.75;1.13;;;25.20;47.40;;;;;;5049894;28;20134;-53
2021/09/21 11:43:25;;;;;;;2.40;0.85;;;25.20;47.30;;;;;;5046226;28;20133;-53
2021/09/21 11:45:54;;;;;;;1.45;0.63;;;25.30;48.00;;;;;;5046791;28;20047;-54
2021/09/21 11:48:22;;;;;;;0.90;0.88;;;25.30;47.20;;;;;;5047024;28;20107;-54
2021/09/21 11:50:49;;;;;;;2.42;0.85;;;25.30;47.20;;;;;;5042628;28;20052;-52
2021/09/21 11:53:18;;;;;;;0.93;0.93;;;25.30;47.10;;;;;;5049120;28;20058;-55
2021/09/21 11:55:47;;;;;;;2.50;0.90;;;25.40;47.10;;;;;;5049565;28;20097;-52
2021/09/21 11:58:15;;;;;;;2.28;1.15;;;25.30;47.00;;;;;;5052532;28;20063;-53
2021/09/21 12:00:45;;;;;;;4.70;1.13;;;25.40;47.00;;;;;;5045249;28;20098;-51
2021/09/21 12:03:14;;;;;;;1.90;1.00;;;25.40;47.10;;;;;;5045984;28;20211;-54
2021/09/21 12:05:44;;;;;;;3.33;0.88;;;25.40;47.20;;;;;;5047021;28;20124;-53
2021/09/21 12:08:14;;;;;;;1.00;0.68;;;25.40;47.20;;;;;;5045081;28;20041;-53
2021/09/21 12:10:44;;;;;;;5.03;1.00;;;25.40;47.20;;;;;;5042961;28;20048;-50
2021/09/21 12:13:14;;;;;;;1.42;1.08;;;25.40;47.20;;;;;;5048240;28;20047;-52
2021/09/21 12:15:44;;;;;;;1.65;0.98;;;25.50;47.30;;;;;;5031489;28;20580;-51
2021/09/21 12:18:15;;;;;;;1.23;1.13;;;25.50;47.30;;;;;;5062291;28;20073;-49
2021/09/21 12:20:50;;;;;;;0.75;0.75;;;25.50;47.30;;;;;;5053920;28;20053;-53
2021/09/21 12:23:17;;;;;;;1.30;1.17;;;25.50;47.30;;;;;;5054706;28;20032;-49
2021/09/21 12:25:44;;;;;;;3.17;1.40;;;25.50;47.30;;;;;;5060069;28;20061;-50
2021/09/21 12:28:12;;;;;;;1.65;1.42;;;25.60;47.20;;;;;;5052587;28;20040;-50
2021/09/21 12:30:42;;;;;;;3.63;1.13;;;25.60;47.10;;;;;;5049503;28;20135;-51
2021/09/21 12:33:12;;;;;;;4.05;0.70;;;25.60;47.10;;;;;;5047585;28;20061;-54
2021/09/21 12:35:44;;;;;;;3.28;1.40;;;25.60;47.00;;;;;;5051469;28;20064;-51
2021/09/21 12:38:13;;;;;;;1.95;1.08;;;25.70;47.10;;;;;;5052722;28;20037;-53
2021/09/21 12:40:50;;;;;;;2.67;1.10;;;25.70;47.00;;;;;;5050659;28;20110;-55
2021/09/21 12:43:20;;;;;;;1.50;1.40;;;25.70;46.90;;;;;;5055100;28;20041;-53
2021/09/21 12:45:48;;;;;;;1.92;1.40;;;25.70;46.90;;;;;;5048405;28;20075;-53
2021/09/21 12:48:15;;;;;;;2.42;1.40;;;25.70;46.80;;;;;;5048790;28;20045;-54
2021/09/21 12:50:44;;;;;;;2.20;1.45;;;25.70;46.80;;;;;;5053730;28;20099;-54
2021/09/21 12:53:19;;;;;;;2.45;1.35;;;25.70;46.80;;;;;;5048550;28;20098;-53
2021/09/21 12:55:53;;;;;;;5.63;1.60;;;25.80;46.80;;;;;;5050553;28;20040;-52
2021/09/21 12:58:22;;;;;;;4.78;2.22;;;25.70;46.70;;;;;;5052507;28;20062;-54
2021/09/21 13:00:49;;;;;;;3.08;1.55;;;25.70;46.70;;;;;;5049097;28;20253;-53